VOI1244 MMMX-MMOX
Flight info
| Callsign | VOI1244 |
|---|---|
| Flight time | 0h 41m |
| Altitude | 29000 |
| Route | TEVO2A/05L TEVOS UT113 OAX |
| Aircraft | A320/M-SDE3FGHIRWY/LB1 |
Departure
| Time | 2026-04-21 03:58 |
|---|---|
| Airport | Mexico City Benito Juárez International Airport (MMMX) |
Arrival
| Time | 2026-04-21 04:39 |
|---|---|
| Airport | Xoxocotlán International Airport (MMOX) |
| Time | Latitude | Longitude | Altitude | Speed | Heading |
|---|---|---|---|---|---|
| 2026-04-21 03:41 | 19.43220 | -99.08582 | 7301 ft | 0 kts | 349° |
| 2026-04-21 03:48 | 19.43213 | -99.08581 | 7301 ft | 2 kts | 349° |
| 2026-04-21 03:49 | 19.43198 | -99.08578 | 7284 ft | 2 kts | 349° |
| 2026-04-21 03:49 | 19.43183 | -99.08576 | 7301 ft | 2 kts | 358° |
| 2026-04-21 03:49 | 19.43169 | -99.08571 | 7301 ft | 2 kts | 292° |
| 2026-04-21 03:49 | 19.43166 | -99.08562 | 7301 ft | 0 kts | 258° |
| 2026-04-21 03:50 | 19.43163 | -99.08569 | 7301 ft | 3 kts | 250° |
| 2026-04-21 03:50 | 19.43151 | -99.08587 | 7301 ft | 4 kts | 233° |
| 2026-04-21 03:51 | 19.43116 | -99.08644 | 7301 ft | 12 kts | 239° |
| 2026-04-21 03:51 | 19.43071 | -99.08727 | 7300 ft | 15 kts | 240° |
| 2026-04-21 03:51 | 19.43019 | -99.08820 | 7301 ft | 14 kts | 238° |
| 2026-04-21 03:51 | 19.42970 | -99.08905 | 7301 ft | 13 kts | 240° |
| 2026-04-21 03:52 | 19.42928 | -99.08982 | 7301 ft | 11 kts | 239° |
| 2026-04-21 03:52 | 19.42877 | -99.09035 | 7301 ft | 10 kts | 208° |
| 2026-04-21 03:52 | 19.42861 | -99.09044 | 7301 ft | 0 kts | 207° |
| 2026-04-21 03:53 | 19.42842 | -99.09054 | 7301 ft | 9 kts | 207° |
| 2026-04-21 03:53 | 19.42792 | -99.09081 | 7301 ft | 7 kts | 205° |
| 2026-04-21 03:53 | 19.42765 | -99.09078 | 7302 ft | 5 kts | 146° |
| 2026-04-21 03:53 | 19.42762 | -99.09040 | 7302 ft | 5 kts | 66° |
| 2026-04-21 03:54 | 19.42766 | -99.09032 | 7302 ft | 0 kts | 62° |
| 2026-04-21 03:57 | 19.42843 | -99.08892 | 7302 ft | 59 kts | 60° |
| 2026-04-21 03:57 | 19.43178 | -99.08300 | 7301 ft | 125 kts | 59° |
| 2026-04-21 03:57 | 19.43712 | -99.07342 | 7305 ft | 176 kts | 60° |
| 2026-04-21 03:57 | 19.44401 | -99.06144 | 7770 ft | 195 kts | 59° |
| 2026-04-21 03:58 | 19.45085 | -99.04931 | 8853 ft | 194 kts | 59° |
| 2026-04-21 03:58 | 19.45755 | -99.03704 | 9556 ft | 185 kts | 59° |
| 2026-04-21 03:58 | 19.46413 | -99.02521 | 9848 ft | 197 kts | 57° |
| 2026-04-21 03:58 | 19.47166 | -99.01185 | 10042 ft | 220 kts | 58° |
| 2026-04-21 03:59 | 19.47990 | -98.99725 | 10220 ft | 242 kts | 58° |
| 2026-04-21 03:59 | 19.48886 | -98.98139 | 10433 ft | 265 kts | 58° |
| 2026-04-21 03:59 | 19.49703 | -98.96356 | 10993 ft | 274 kts | 78° |
| 2026-04-21 04:00 | 19.48457 | -98.92713 | 12409 ft | 280 kts | 140° |
| 2026-04-21 04:00 | 19.46849 | -98.91554 | 13233 ft | 280 kts | 150° |
| 2026-04-21 04:00 | 19.45136 | -98.90561 | 14032 ft | 282 kts | 152° |
| 2026-04-21 04:00 | 19.43414 | -98.89546 | 14714 ft | 284 kts | 149° |
| 2026-04-21 04:01 | 19.41718 | -98.88447 | 15364 ft | 288 kts | 147° |
| 2026-04-21 04:01 | 19.40041 | -98.87261 | 16007 ft | 292 kts | 145° |
| 2026-04-21 04:01 | 19.38381 | -98.86008 | 16636 ft | 294 kts | 143° |
| 2026-04-21 04:01 | 19.36727 | -98.84707 | 17268 ft | 298 kts | 143° |
| 2026-04-21 04:02 | 19.35052 | -98.83392 | 17853 ft | 302 kts | 147° |
| 2026-04-21 04:02 | 19.33150 | -98.82409 | 18302 ft | 307 kts | 161° |
| 2026-04-21 04:02 | 19.31017 | -98.81987 | 18427 ft | 322 kts | 178° |
| 2026-04-21 04:02 | 19.28718 | -98.82094 | 18546 ft | 341 kts | 183° |
| 2026-04-21 04:03 | 19.26280 | -98.82258 | 18654 ft | 359 kts | 183° |
| 2026-04-21 04:03 | 19.23730 | -98.82419 | 18753 ft | 376 kts | 182° |
| 2026-04-21 04:03 | 19.21065 | -98.82578 | 18853 ft | 392 kts | 182° |
| 2026-04-21 04:03 | 19.18296 | -98.82737 | 19058 ft | 403 kts | 182° |
| 2026-04-21 04:04 | 19.15511 | -98.82900 | 19399 ft | 408 kts | 182° |
| 2026-04-21 04:04 | 19.12666 | -98.83068 | 19883 ft | 411 kts | 182° |
| 2026-04-21 04:04 | 19.09799 | -98.83239 | 20384 ft | 414 kts | 182° |
| 2026-04-21 04:04 | 19.06911 | -98.83413 | 20879 ft | 417 kts | 182° |
| 2026-04-21 04:05 | 19.03997 | -98.83586 | 21342 ft | 420 kts | 182° |
| 2026-04-21 04:05 | 19.01069 | -98.83757 | 21816 ft | 423 kts | 182° |
| 2026-04-21 04:05 | 18.98119 | -98.83927 | 22289 ft | 426 kts | 182° |
| 2026-04-21 04:05 | 18.95144 | -98.84101 | 22768 ft | 429 kts | 182° |
| 2026-04-21 04:06 | 18.92171 | -98.84470 | 23207 ft | 432 kts | 188° |
| 2026-04-21 04:06 | 18.89191 | -98.84956 | 23638 ft | 435 kts | 188° |
| 2026-04-21 04:06 | 18.86195 | -98.85442 | 24010 ft | 437 kts | 188° |
| 2026-04-21 04:06 | 18.83176 | -98.85926 | 24415 ft | 439 kts | 188° |
| 2026-04-21 04:07 | 18.80156 | -98.86408 | 24802 ft | 441 kts | 189° |
| 2026-04-21 04:07 | 18.77116 | -98.86891 | 25158 ft | 442 kts | 189° |
| 2026-04-21 04:07 | 18.74068 | -98.87375 | 25542 ft | 444 kts | 189° |
| 2026-04-21 04:07 | 18.71006 | -98.87861 | 25933 ft | 446 kts | 189° |
| 2026-04-21 04:08 | 18.67941 | -98.88348 | 26306 ft | 447 kts | 189° |
| 2026-04-21 04:08 | 18.64851 | -98.88842 | 26681 ft | 449 kts | 190° |
| 2026-04-21 04:08 | 18.61791 | -98.89332 | 27044 ft | 452 kts | 190° |
| 2026-04-21 04:08 | 18.58680 | -98.89831 | 27416 ft | 454 kts | 190° |
| 2026-04-21 04:09 | 18.55553 | -98.90330 | 27765 ft | 456 kts | 191° |
| 2026-04-21 04:09 | 18.52405 | -98.90832 | 28104 ft | 458 kts | 191° |
| 2026-04-21 04:09 | 18.49212 | -98.91080 | 28454 ft | 464 kts | 179° |
| 2026-04-21 04:09 | 18.46011 | -98.90520 | 28820 ft | 471 kts | 165° |
| 2026-04-21 04:10 | 18.43014 | -98.89098 | 28963 ft | 474 kts | 149° |
| 2026-04-21 04:10 | 18.40515 | -98.86842 | 28989 ft | 477 kts | 132° |
| 2026-04-21 04:10 | 18.38565 | -98.84007 | 28981 ft | 478 kts | 126° |
| 2026-04-21 04:11 | 18.34831 | -98.78214 | 28989 ft | 478 kts | 126° |
| 2026-04-21 04:11 | 18.31074 | -98.72438 | 28995 ft | 478 kts | 126° |
| 2026-04-21 04:12 | 18.27303 | -98.66694 | 28988 ft | 477 kts | 126° |
| 2026-04-21 04:12 | 18.23550 | -98.60982 | 29005 ft | 477 kts | 126° |
| 2026-04-21 04:13 | 18.19782 | -98.55243 | 29009 ft | 476 kts | 126° |
| 2026-04-21 04:13 | 18.16025 | -98.49518 | 29024 ft | 475 kts | 126° |
| 2026-04-21 04:14 | 18.12281 | -98.43805 | 29016 ft | 474 kts | 126° |
| 2026-04-21 04:14 | 18.08533 | -98.38107 | 29011 ft | 474 kts | 126° |
| 2026-04-21 04:15 | 18.04779 | -98.32415 | 29029 ft | 473 kts | 126° |
| 2026-04-21 04:15 | 18.01031 | -98.26723 | 29031 ft | 473 kts | 126° |
| 2026-04-21 04:16 | 17.97288 | -98.21038 | 29028 ft | 473 kts | 126° |
| 2026-04-21 04:16 | 17.93546 | -98.15352 | 29054 ft | 473 kts | 126° |
| 2026-04-21 04:17 | 17.89796 | -98.09675 | 29053 ft | 473 kts | 126° |
| 2026-04-21 04:17 | 17.86044 | -98.04010 | 29083 ft | 473 kts | 126° |
| 2026-04-21 04:18 | 17.82313 | -97.98374 | 29090 ft | 473 kts | 126° |
| 2026-04-21 04:18 | 17.78565 | -97.92712 | 29092 ft | 472 kts | 126° |
| 2026-04-21 04:19 | 17.74817 | -97.87053 | 29131 ft | 471 kts | 126° |
| 2026-04-21 04:19 | 17.71081 | -97.81406 | 29150 ft | 471 kts | 126° |
| 2026-04-21 04:20 | 17.67313 | -97.75793 | 29141 ft | 471 kts | 127° |
| 2026-04-21 04:20 | 17.63409 | -97.70277 | 29173 ft | 470 kts | 128° |
| 2026-04-21 04:21 | 17.59478 | -97.64799 | 29189 ft | 470 kts | 127° |
| 2026-04-21 04:21 | 17.55575 | -97.59297 | 29189 ft | 470 kts | 127° |
| 2026-04-21 04:22 | 17.51692 | -97.53783 | 29197 ft | 470 kts | 127° |
| 2026-04-21 04:22 | 17.47799 | -97.48263 | 29195 ft | 470 kts | 127° |
| 2026-04-21 04:23 | 17.43921 | -97.42751 | 29186 ft | 470 kts | 126° |
| 2026-04-21 04:23 | 17.40189 | -97.37117 | 29184 ft | 471 kts | 125° |
| 2026-04-21 04:24 | 17.36539 | -97.31424 | 29167 ft | 463 kts | 124° |
| 2026-04-21 04:24 | 17.34767 | -97.28676 | 29074 ft | 448 kts | 125° |
| 2026-04-21 04:24 | 17.33078 | -97.26080 | 28911 ft | 425 kts | 125° |
| 2026-04-21 04:24 | 17.31437 | -97.23579 | 28475 ft | 410 kts | 125° |
| 2026-04-21 04:25 | 17.29834 | -97.21149 | 27897 ft | 402 kts | 125° |
| 2026-04-21 04:25 | 17.28258 | -97.18764 | 27193 ft | 396 kts | 125° |
| 2026-04-21 04:25 | 17.26700 | -97.16404 | 26504 ft | 391 kts | 125° |
| 2026-04-21 04:25 | 17.25164 | -97.14078 | 25836 ft | 386 kts | 125° |
| 2026-04-21 04:26 | 17.23649 | -97.11783 | 25182 ft | 381 kts | 124° |
| 2026-04-21 04:26 | 17.22152 | -97.09516 | 24511 ft | 377 kts | 124° |
| 2026-04-21 04:26 | 17.20662 | -97.07265 | 23833 ft | 374 kts | 124° |
| 2026-04-21 04:26 | 17.19172 | -97.05061 | 23123 ft | 368 kts | 125° |
| 2026-04-21 04:27 | 17.17689 | -97.02897 | 22412 ft | 363 kts | 125° |
| 2026-04-21 04:27 | 17.16225 | -97.00778 | 21753 ft | 357 kts | 125° |
| 2026-04-21 04:27 | 17.14780 | -96.98690 | 21108 ft | 351 kts | 125° |
| 2026-04-21 04:27 | 17.13365 | -96.96643 | 20493 ft | 344 kts | 124° |
| 2026-04-21 04:28 | 17.11978 | -96.94630 | 19888 ft | 339 kts | 124° |
| 2026-04-21 04:28 | 17.10610 | -96.92639 | 19277 ft | 334 kts | 124° |
| 2026-04-21 04:28 | 17.09265 | -96.90677 | 18677 ft | 330 kts | 124° |
| 2026-04-21 04:28 | 17.07938 | -96.88737 | 18080 ft | 329 kts | 124° |
| 2026-04-21 04:29 | 17.06627 | -96.86825 | 17907 ft | 314 kts | 124° |
| 2026-04-21 04:29 | 17.05392 | -96.85029 | 17778 ft | 295 kts | 124° |
| 2026-04-21 04:29 | 17.04239 | -96.83355 | 17547 ft | 283 kts | 124° |
| 2026-04-21 04:29 | 17.03086 | -96.81677 | 17103 ft | 279 kts | 124° |
| 2026-04-21 04:30 | 17.01960 | -96.80042 | 16652 ft | 277 kts | 123° |
| 2026-04-21 04:30 | 17.00863 | -96.78444 | 16395 ft | 271 kts | 123° |
| 2026-04-21 04:30 | 16.99770 | -96.76850 | 15975 ft | 272 kts | 123° |
| 2026-04-21 04:30 | 16.98635 | -96.75233 | 15278 ft | 280 kts | 128° |
| 2026-04-21 04:31 | 16.97201 | -96.73815 | 14587 ft | 289 kts | 142° |
| 2026-04-21 04:31 | 16.95447 | -96.72762 | 13859 ft | 293 kts | 156° |
| 2026-04-21 04:31 | 16.93503 | -96.72171 | 13026 ft | 290 kts | 169° |
| 2026-04-21 04:31 | 16.91552 | -96.71777 | 12427 ft | 279 kts | 165° |
| 2026-04-21 04:32 | 16.89747 | -96.71214 | 12063 ft | 262 kts | 160° |
| 2026-04-21 04:32 | 16.88038 | -96.70764 | 11812 ft | 249 kts | 168° |
| 2026-04-21 04:32 | 16.86392 | -96.70401 | 11640 ft | 231 kts | 165° |
| 2026-04-21 04:32 | 16.84893 | -96.69998 | 11479 ft | 216 kts | 163° |
| 2026-04-21 04:33 | 16.83459 | -96.69637 | 11289 ft | 208 kts | 174° |
| 2026-04-21 04:33 | 16.82035 | -96.69842 | 10949 ft | 210 kts | 202° |
| 2026-04-21 04:33 | 16.80872 | -96.70723 | 10617 ft | 206 kts | 231° |
| 2026-04-21 04:33 | 16.80276 | -96.72032 | 10293 ft | 196 kts | 262° |
| 2026-04-21 04:34 | 16.80388 | -96.73376 | 9992 ft | 182 kts | 293° |
| 2026-04-21 04:34 | 16.81136 | -96.74386 | 9598 ft | 175 kts | 326° |
| 2026-04-21 04:34 | 16.82120 | -96.75079 | 9297 ft | 163 kts | 329° |
| 2026-04-21 04:34 | 16.83047 | -96.75672 | 9007 ft | 152 kts | 332° |
| 2026-04-21 04:35 | 16.84006 | -96.76111 | 8584 ft | 152 kts | 348° |
| 2026-04-21 04:35 | 16.85053 | -96.76231 | 8175 ft | 151 kts | 1° |
| 2026-04-21 04:35 | 16.86091 | -96.76207 | 7831 ft | 147 kts | 8° |
| 2026-04-21 04:35 | 16.87092 | -96.76017 | 7522 ft | 149 kts | 15° |
| 2026-04-21 04:36 | 16.88137 | -96.75727 | 7327 ft | 162 kts | 17° |
| 2026-04-21 04:36 | 16.89238 | -96.75373 | 7170 ft | 169 kts | 19° |
| 2026-04-21 04:36 | 16.90366 | -96.75016 | 7002 ft | 168 kts | 16° |
| 2026-04-21 04:36 | 16.91492 | -96.74721 | 6771 ft | 166 kts | 15° |
| 2026-04-21 04:37 | 16.92622 | -96.74482 | 6495 ft | 165 kts | 13° |
| 2026-04-21 04:37 | 16.93738 | -96.74225 | 6195 ft | 164 kts | 14° |
| 2026-04-21 04:37 | 16.94850 | -96.74001 | 5930 ft | 161 kts | 9° |
| 2026-04-21 04:37 | 16.95933 | -96.73771 | 5696 ft | 155 kts | 18° |
| 2026-04-21 04:38 | 16.96945 | -96.73432 | 5471 ft | 151 kts | 16° |
| 2026-04-21 04:38 | 16.97937 | -96.73145 | 5236 ft | 145 kts | 15° |
| 2026-04-21 04:38 | 16.98898 | -96.72878 | 5014 ft | 141 kts | 16° |
| 2026-04-21 04:38 | 16.99748 | -96.72635 | 4977 ft | 90 kts | 14° |
| 2026-04-21 04:39 | 17.00044 | -96.72550 | 4979 ft | 28 kts | 17° |
| 2026-04-21 04:39 | 17.00227 | -96.72493 | 4979 ft | 27 kts | 16° |
| 2026-04-21 04:39 | 17.00309 | -96.72453 | 4981 ft | 9 kts | 60° |
| 2026-04-21 04:39 | 17.00305 | -96.72389 | 4982 ft | 9 kts | 103° |
| 2026-04-21 04:40 | 17.00289 | -96.72324 | 4981 ft | 10 kts | 106° |
| 2026-04-21 04:40 | 17.00269 | -96.72285 | 4981 ft | 9 kts | 139° |
| 2026-04-21 04:40 | 17.00228 | -96.72271 | 4981 ft | 6 kts | 120° |
| 2026-04-21 04:40 | 17.00219 | -96.72241 | 4980 ft | 2 kts | 108° |
| 2026-04-21 04:41 | 17.00224 | -96.72229 | 4980 ft | 2 kts | 34° |
| 2026-04-21 04:41 | 17.00232 | -96.72228 | 4980 ft | 0 kts | 11° |